createdAt,value
2019-03-20T00:00:44.666Z,26.0
2019-03-20T00:01:44.658Z,25.7
2019-03-20T00:02:44.648Z,25.3
2019-03-20T00:03:44.883Z,26.8
2019-03-20T00:04:49.676Z,26.5
2019-03-20T00:05:44.611Z,25.8
2019-03-20T00:06:44.610Z,25.0
2019-03-20T00:07:44.591Z,25.8
2019-03-20T00:08:44.581Z,24.7
2019-03-20T00:09:44.668Z,24.8
2019-03-20T00:10:44.556Z,25.1
2019-03-20T00:11:44.545Z,24.1
2019-03-20T00:12:44.541Z,21.7
2019-03-20T00:13:44.525Z,21.5
2019-03-20T00:14:44.617Z,22.7
2019-03-20T00:15:44.503Z,21.3
2019-03-20T00:16:44.493Z,21.7
2019-03-20T00:17:44.481Z,21.8
2019-03-20T00:18:44.473Z,21.8
2019-03-20T00:19:44.458Z,22.7
2019-03-20T00:20:44.602Z,23.1
2019-03-20T00:21:44.442Z,23.0
2019-03-20T00:22:44.431Z,27.2
2019-03-20T00:23:44.418Z,29.7
2019-03-20T00:24:44.407Z,25.8
2019-03-20T00:25:44.400Z,22.2
2019-03-20T00:26:44.487Z,22.5
2019-03-20T00:27:44.374Z,24.8
2019-03-20T00:28:44.369Z,23.5
2019-03-20T00:29:44.357Z,23.6
2019-03-20T00:30:44.346Z,26.3
2019-03-20T00:31:44.332Z,27.7
2019-03-20T00:32:44.371Z,27.2
2019-03-20T00:33:44.310Z,33.2
2019-03-20T00:34:44.299Z,41.7
2019-03-20T00:35:44.287Z,33.0
2019-03-20T00:36:44.280Z,40.0
2019-03-20T00:37:44.268Z,40.9
2019-03-20T00:38:44.457Z,33.5
2019-03-20T00:39:44.250Z,39.2
2019-03-20T00:40:44.238Z,47.7
2019-03-20T00:41:44.226Z,46.2
2019-03-20T00:42:44.215Z,50.7
2019-03-20T00:43:44.208Z,46.5
2019-03-20T00:44:44.300Z,46.5
2019-03-20T00:45:44.185Z,51.7
2019-03-20T00:46:44.172Z,51.5
2019-03-20T00:47:44.159Z,53.2
2019-03-20T00:48:44.149Z,52.2
2019-03-20T00:49:44.139Z,49.5
2019-03-20T00:50:44.177Z,51.7
2019-03-20T00:51:44.120Z,50.9
2019-03-20T00:52:44.105Z,53.0
2019-03-20T00:53:44.095Z,52.2
2019-03-20T00:54:44.083Z,53.2
2019-03-20T00:55:44.077Z,55.5
2019-03-20T00:56:44.317Z,55.2
2019-03-20T00:57:44.055Z,54.0
2019-03-20T00:58:44.042Z,53.2
2019-03-20T00:59:44.036Z,54.4
2019-03-20T01:00:44.025Z,55.5
2019-03-20T01:01:44.012Z,52.5
2019-03-20T01:02:44.102Z,48.0
2019-03-20T01:03:43.992Z,42.4
2019-03-20T01:04:43.978Z,46.5
2019-03-20T01:05:43.971Z,49.79
2019-03-20T01:06:43.956Z,50.50
2019-03-20T01:07:43.995Z,50.90
2019-03-20T01:08:43.935Z,48.79
2019-03-20T01:09:43.927Z,47.40
2019-03-20T01:10:43.911Z,45.50
2019-03-20T01:11:43.903Z,43.79
2019-03-20T01:12:44.090Z,42.00
2019-03-20T01:13:43.899Z,38.20
2019-03-20T01:14:43.880Z,36.50
2019-03-20T01:15:43.857Z,38.59
2019-03-20T01:16:43.848Z,50.59
2019-03-20T01:17:43.834Z,41.20
2019-03-20T01:18:43.881Z,49.00
2019-03-20T01:19:43.816Z,34.50
2019-03-20T01:20:43.806Z,33.20
2019-03-20T01:21:43.795Z,32.50
2019-03-20T01:22:43.783Z,31.70
2019-03-20T01:23:43.776Z,31.20
2019-03-20T01:24:43.814Z,32.40
2019-03-20T01:25:43.754Z,31.10
2019-03-20T01:26:43.742Z,30.20
2019-03-20T01:27:43.731Z,30.70
2019-03-20T01:28:43.721Z,30.10
2019-03-20T01:29:43.710Z,30.79
2019-03-20T01:30:43.847Z,31.10
2019-03-20T01:31:43.693Z,30.89
2019-03-20T01:32:43.674Z,30.10
2019-03-20T01:33:43.666Z,30.60
2019-03-20T01:34:43.665Z,29.29
2019-03-20T01:35:43.689Z,30.70
2019-03-20T01:36:43.635Z,31.89
2019-03-20T01:37:43.624Z,32.70
2019-03-20T01:38:43.610Z,32.29
2019-03-20T01:39:43.600Z,34.00
2019-03-20T01:40:43.592Z,31.60
2019-03-20T01:41:43.638Z,35.40
2019-03-20T01:42:43.570Z,33.59
2019-03-20T01:43:43.563Z,33.00
2019-03-20T01:44:43.549Z,33.70
2019-03-20T01:45:43.536Z,33.70
2019-03-20T01:46:43.524Z,33.20
2019-03-20T01:47:43.716Z,34.90
2019-03-20T01:48:43.511Z,37.70
2019-03-20T01:49:43.496Z,44.50
2019-03-20T01:50:43.478Z,46.20
2019-03-20T01:51:43.482Z,51.40
2019-03-20T01:52:43.458Z,59.90
2019-03-20T01:53:43.498Z,56.90
2019-03-20T01:54:43.439Z,59.20
2019-03-20T01:55:43.432Z,59.40
2019-03-20T01:56:43.422Z,65.09
2019-03-20T01:57:43.410Z,57.29
2019-03-20T01:58:43.392Z,63.20
2019-03-20T01:59:43.437Z,59.20
2019-03-20T02:00:43.372Z,67.59
2019-03-20T02:01:43.364Z,68.50
2019-03-20T02:02:43.353Z,64.19
2019-03-20T02:03:43.346Z,63.50
2019-03-20T02:04:43.388Z,53.90
2019-03-20T02:05:43.323Z,65.50
2019-03-20T02:06:43.311Z,60.09
2019-03-20T02:07:43.294Z,58.90
2019-03-20T02:08:43.294Z,58.59
2019-03-20T02:09:43.278Z,50.59
2019-03-20T02:10:43.317Z,51.79
2019-03-20T02:11:43.255Z,56.50
2019-03-20T02:12:43.250Z,58.90
2019-03-20T02:13:43.231Z,59.79
2019-03-20T02:14:43.225Z,61.79
2019-03-20T02:15:43.661Z,58.70
2019-03-20T02:16:43.219Z,54.40
2019-03-20T02:17:43.197Z,57.70
2019-03-20T02:18:43.178Z,62.50
2019-03-20T02:19:43.169Z,63.79
2019-03-20T02:20:43.161Z,62.59
2019-03-20T02:21:43.195Z,61.59
2019-03-20T02:22:43.136Z,58.40
2019-03-20T02:23:43.125Z,58.90
2019-03-20T02:24:43.111Z,55.40
2019-03-20T02:25:43.104Z,54.09
2019-03-20T02:26:43.091Z,51.50
2019-03-20T02:27:43.177Z,49.90
2019-03-20T02:28:43.074Z,49.79
2019-03-20T02:29:43.061Z,49.79
2019-03-20T02:30:43.053Z,47.29
2019-03-20T02:31:43.037Z,42.09
2019-03-20T02:32:43.026Z,45.90
2019-03-20T02:33:43.174Z,39.90
2019-03-20T02:34:43.003Z,40.50
2019-03-20T02:35:51.270Z,38.90
2019-03-20T02:37:07.803Z,40.59
2019-03-20T02:38:07.791Z,40.59
2019-03-20T02:39:07.832Z,42.00
2019-03-20T02:40:07.785Z,42.90
2019-03-20T02:41:07.774Z,41.00
2019-03-20T02:42:07.756Z,46.00
2019-03-20T02:43:07.831Z,44.20
2019-03-20T02:44:07.727Z,41.40
2019-03-20T02:45:07.774Z,47.20
2019-03-20T02:46:07.707Z,48.00
2019-03-20T02:47:07.696Z,48.00
2019-03-20T02:48:07.690Z,48.29
2019-03-20T02:49:07.676Z,45.29
2019-03-20T02:50:07.666Z,42.00
2019-03-20T02:51:07.806Z,43.79
2019-03-20T02:52:07.640Z,42.79
2019-03-20T02:53:07.638Z,43.50
2019-03-20T02:54:07.628Z,43.70
2019-03-20T02:55:07.610Z,44.70
2019-03-20T02:56:07.603Z,45.79
2019-03-20T02:57:07.689Z,45.70
2019-03-20T02:58:07.580Z,44.79
2019-03-20T02:59:07.568Z,44.09
2019-03-20T03:00:07.556Z,40.40
2019-03-20T03:01:07.543Z,42.40
2019-03-20T03:02:07.528Z,39.50
2019-03-20T03:03:07.620Z,40.29
2019-03-20T03:04:07.513Z,41.00
2019-03-20T03:05:07.499Z,37.90
2019-03-20T03:06:07.733Z,40.40
2019-03-20T03:07:07.482Z,39.90
2019-03-20T03:08:07.483Z,40.40
2019-03-20T03:09:07.611Z,38.09
2019-03-20T03:10:07.445Z,34.90
2019-03-20T03:11:07.439Z,33.29
2019-03-20T03:12:07.426Z,34.09
2019-03-20T03:13:07.416Z,32.90
2019-03-20T03:14:07.408Z,33.59
2019-03-20T03:15:07.449Z,32.09
2019-03-20T03:16:07.381Z,30.89
2019-03-20T03:17:07.375Z,32.50
2019-03-20T03:18:07.372Z,30.79
2019-03-20T03:19:07.353Z,30.79
2019-03-20T03:20:07.343Z,30.29
2019-03-20T03:21:07.436Z,32.20
2019-03-20T03:22:07.317Z,31.79
2019-03-20T03:23:07.313Z,30.70
2019-03-20T03:24:07.301Z,30.89
2019-03-20T03:25:07.288Z,31.10
2019-03-20T03:26:07.279Z,32.59
2019-03-20T03:27:07.421Z,31.89
2019-03-20T03:28:07.261Z,33.00
2019-03-20T03:29:07.251Z,33.79
2019-03-20T03:30:07.238Z,32.50
2019-03-20T03:31:07.260Z,32.40
2019-03-20T03:32:07.216Z,33.09
2019-03-20T03:33:07.260Z,33.59
2019-03-20T03:34:07.205Z,34.40
2019-03-20T03:35:07.185Z,34.00
2019-03-20T03:36:20.244Z,31.79
2019-03-20T03:37:31.984Z,38.00
2019-03-20T03:38:32.022Z,37.90
2019-03-20T03:39:31.961Z,37.59
2019-03-20T03:40:31.965Z,38.79
2019-03-20T03:41:31.953Z,37.70
2019-03-20T03:42:31.925Z,37.09
2019-03-20T03:43:31.917Z,37.90
2019-03-20T03:44:32.062Z,34.90
2019-03-20T03:45:31.899Z,34.59
2019-03-20T03:46:31.888Z,34.09
2019-03-20T03:47:31.874Z,34.29
2019-03-20T03:48:31.865Z,33.50
2019-03-20T03:49:31.857Z,34.09
2019-03-20T03:50:31.900Z,30.70
2019-03-20T03:51:31.836Z,31.20
2019-03-20T03:52:31.825Z,30.00
2019-03-20T03:53:31.813Z,31.39
2019-03-20T03:54:31.802Z,29.50
2019-03-20T03:55:31.785Z,30.89
2019-03-20T03:56:31.877Z,29.79
2019-03-20T03:57:31.786Z,28.50
2019-03-20T03:58:32.907Z,29.39
2019-03-20T03:59:31.749Z,28.50
2019-03-20T04:00:31.738Z,27.60
2019-03-20T04:01:31.762Z,29.10
2019-03-20T04:02:31.867Z,29.70
2019-03-20T04:03:31.710Z,30.10
2019-03-20T04:04:31.691Z,27.60
2019-03-20T04:05:31.688Z,29.29
2019-03-20T04:06:35.826Z,29.70
2019-03-20T04:07:31.657Z,29.60
2019-03-20T04:08:31.699Z,29.29
2019-03-20T04:09:31.638Z,27.79
2019-03-20T04:10:31.637Z,27.79
2019-03-20T04:11:31.632Z,28.00
2019-03-20T04:12:31.610Z,26.10
2019-03-20T04:13:31.596Z,26.00
2019-03-20T04:14:31.692Z,24.89
2019-03-20T04:15:31.579Z,25.29
2019-03-20T04:16:31.570Z,25.60
2019-03-20T04:17:31.557Z,26.89
2019-03-20T04:18:31.569Z,25.79
2019-03-20T04:19:31.533Z,27.00
2019-03-20T04:20:31.585Z,26.89
2019-03-20T04:21:31.514Z,26.50
2019-03-20T04:22:31.506Z,24.60
2019-03-20T04:23:31.496Z,25.39
2019-03-20T04:24:31.483Z,25.50
2019-03-20T04:25:31.469Z,25.60
2019-03-20T04:26:31.507Z,26.29
2019-03-20T04:27:31.446Z,25.29
2019-03-20T04:28:31.444Z,25.39
2019-03-20T04:29:31.428Z,25.29
2019-03-20T04:30:31.434Z,24.39
2019-03-20T04:31:31.411Z,25.60
2019-03-20T04:32:31.451Z,24.70
2019-03-20T04:33:31.384Z,25.29
2019-03-20T04:34:31.377Z,24.60
2019-03-20T04:35:31.360Z,25.29
2019-03-20T04:36:31.357Z,24.20
2019-03-20T04:37:31.344Z,24.00
2019-03-20T04:38:31.440Z,26.39
2019-03-20T04:39:31.322Z,23.89
2019-03-20T04:40:31.313Z,25.60
2019-03-20T04:41:31.301Z,27.20
2019-03-20T04:42:31.293Z,25.60
2019-03-20T04:43:31.293Z,24.89
2019-03-20T04:44:31.322Z,27.89
2019-03-20T04:45:31.260Z,26.00
2019-03-20T04:46:31.245Z,26.79
2019-03-20T04:47:31.240Z,26.70
2019-03-20T04:48:31.227Z,27.39
2019-03-20T04:49:31.215Z,26.10
2019-03-20T04:50:31.256Z,25.60
2019-03-20T04:51:31.196Z,26.20
2019-03-20T04:52:31.183Z,25.60
2019-03-20T04:53:31.172Z,25.50
2019-03-20T04:54:31.160Z,25.39
2019-03-20T04:56:31.293Z,25.39
2019-03-20T04:57:31.130Z,25.70
2019-03-20T04:58:31.119Z,24.79
2019-03-20T04:59:31.109Z,25.50
2019-03-20T05:00:31.092Z,25.29
2019-03-20T05:01:31.089Z,25.70
2019-03-20T05:02:31.176Z,25.10
2019-03-20T05:03:31.064Z,25.39
2019-03-20T05:04:31.052Z,24.50
2019-03-20T05:05:31.043Z,24.70
2019-03-20T05:06:31.032Z,24.89
2019-03-20T05:07:31.021Z,25.20
2019-03-20T05:08:31.059Z,24.60
2019-03-20T05:09:31.002Z,25.39
2019-03-20T05:10:30.988Z,22.29
2019-03-20T05:11:30.979Z,21.20
2019-03-20T05:12:30.973Z,20.60
2019-03-20T05:13:30.954Z,21.39
2019-03-20T05:14:31.151Z,20.89
2019-03-20T05:15:30.935Z,21.60
2019-03-20T05:16:30.928Z,21.39
2019-03-20T05:17:30.917Z,22.10
2019-03-20T05:18:30.910Z,23.10
2019-03-20T05:19:30.891Z,23.70
2019-03-20T05:20:30.986Z,24.60
2019-03-20T05:21:30.876Z,23.60
2019-03-20T05:22:30.860Z,25.29
2019-03-20T05:23:30.851Z,24.00
2019-03-20T05:24:30.898Z,24.00
2019-03-20T05:25:30.829Z,24.50
2019-03-20T05:26:30.921Z,24.60
2019-03-20T05:27:30.803Z,24.50
2019-03-20T05:28:30.801Z,23.10
2019-03-20T05:29:30.790Z,23.70
2019-03-20T05:30:30.778Z,22.60
2019-03-20T05:31:30.771Z,20.60
2019-03-20T05:32:31.010Z,22.20
2019-03-20T05:33:30.748Z,22.20
2019-03-20T05:34:30.734Z,20.60
2019-03-20T05:35:30.729Z,19.79
2019-03-20T05:36:30.713Z,18.60
2019-03-20T05:37:30.706Z,17.60
2019-03-20T05:38:30.750Z,16.10
2019-03-20T05:39:30.687Z,15.89
2019-03-20T05:40:30.680Z,17.50
2019-03-20T05:41:30.666Z,17.10
2019-03-20T05:42:30.652Z,17.29
2019-03-20T05:43:30.640Z,17.10
2019-03-20T05:44:30.734Z,17.79
2019-03-20T05:45:30.618Z,17.60
2019-03-20T05:46:30.612Z,17.20
2019-03-20T05:47:30.597Z,17.39
2019-03-20T05:48:30.594Z,16.79
2019-03-20T05:49:30.579Z,17.29
2019-03-20T05:50:31.018Z,17.70
2019-03-20T05:51:30.559Z,16.79
2019-03-20T05:52:30.551Z,18.70
2019-03-20T05:53:30.540Z,18.79
2019-03-20T05:54:30.524Z,17.89
2019-03-20T05:55:30.514Z,17.39
2019-03-20T05:56:30.554Z,18.60
2019-03-20T05:57:30.492Z,19.10
2019-03-20T05:58:30.483Z,19.70
2019-03-20T05:59:30.473Z,19.60
2019-03-20T06:00:30.464Z,19.39
2019-03-20T06:01:30.456Z,20.39
2019-03-20T06:02:30.545Z,19.29
2019-03-20T06:03:30.430Z,19.10
2019-03-20T06:04:30.419Z,20.60
2019-03-20T06:05:30.414Z,18.70
2019-03-20T06:06:30.397Z,19.50
2019-03-20T06:07:30.395Z,17.70
2019-03-20T06:08:31.351Z,15.80
2019-03-20T06:09:30.370Z,16.20
2019-03-20T06:10:30.355Z,16.20
2019-03-20T06:11:30.344Z,15.50
2019-03-20T06:12:30.342Z,15.10
2019-03-20T06:13:30.322Z,14.60
2019-03-20T06:14:30.363Z,13.89
2019-03-20T06:15:30.297Z,14.10
2019-03-20T06:16:30.291Z,13.10
2019-03-20T06:17:30.282Z,13.10
2019-03-20T06:18:30.273Z,15.10
2019-03-20T06:19:30.261Z,13.50
2019-03-20T06:20:30.297Z,14.39
2019-03-20T06:21:30.235Z,15.60
2019-03-20T06:22:30.228Z,15.89
2019-03-20T06:23:30.216Z,15.19
2019-03-20T06:24:30.204Z,14.89
2019-03-20T06:25:30.198Z,14.30
2019-03-20T06:26:30.335Z,14.30
2019-03-20T06:27:30.172Z,13.50
2019-03-20T06:28:30.157Z,12.89
2019-03-20T06:29:30.147Z,13.80
2019-03-20T06:30:30.139Z,13.69
2019-03-20T06:31:30.126Z,13.39
2019-03-20T06:32:30.170Z,13.50
2019-03-20T06:33:30.111Z,13.10
2019-03-20T06:34:30.095Z,13.19
2019-03-20T06:35:30.085Z,12.80
2019-03-20T06:36:30.071Z,14.10
2019-03-20T06:37:32.815Z,13.89
2019-03-20T06:38:30.102Z,13.10
2019-03-20T06:39:30.038Z,13.10
2019-03-20T06:40:30.032Z,13.39
2019-03-20T06:41:30.020Z,12.89
2019-03-20T06:42:30.010Z,12.00
2019-03-20T06:43:29.996Z,14.00
2019-03-20T06:44:30.138Z,13.89
2019-03-20T06:45:29.976Z,14.69
2019-03-20T06:46:29.970Z,15.80
2019-03-20T06:47:29.958Z,16.00
2019-03-20T06:48:29.941Z,16.00
2019-03-20T06:49:29.930Z,14.69
2019-03-20T06:50:30.019Z,15.50
2019-03-20T06:51:29.907Z,14.39
2019-03-20T06:52:29.897Z,13.50
2019-03-20T06:53:29.908Z,13.80
2019-03-20T06:54:29.875Z,13.10
2019-03-20T06:55:29.866Z,13.39
2019-03-20T06:56:29.901Z,13.80
2019-03-20T06:57:29.842Z,13.39
2019-03-20T06:58:29.825Z,13.89
2019-03-20T06:59:29.815Z,13.69
2019-03-20T07:00:29.806Z,14.89
2019-03-20T07:01:29.796Z,14.00
2019-03-20T07:02:29.986Z,14.10
2019-03-20T07:03:29.781Z,14.10
2019-03-20T07:04:29.767Z,13.50
2019-03-20T07:05:29.749Z,13.69
2019-03-20T07:06:29.744Z,14.30
2019-03-20T07:07:29.730Z,12.69
2019-03-20T07:08:29.780Z,12.89
2019-03-20T07:09:29.710Z,12.60
2019-03-20T07:10:29.700Z,13.00
2019-03-20T07:11:29.681Z,13.10
2019-03-20T07:12:29.671Z,11.80
2019-03-20T07:13:29.661Z,11.69
2019-03-20T07:14:29.707Z,11.69
2019-03-20T07:15:29.645Z,11.30
2019-03-20T07:16:29.629Z,12.00
2019-03-20T07:17:29.619Z,11.80
2019-03-20T07:18:29.608Z,12.00
2019-03-20T07:19:29.599Z,12.19
2019-03-20T07:20:29.739Z,12.39
2019-03-20T07:21:29.577Z,12.19
2019-03-20T07:22:29.566Z,12.60
2019-03-20T07:23:29.554Z,11.89
2019-03-20T07:24:29.548Z,11.89
2019-03-20T07:25:29.533Z,11.19
2019-03-20T07:26:29.573Z,11.30
2019-03-20T07:27:29.512Z,11.50
2019-03-20T07:28:29.500Z,11.60
2019-03-20T07:29:29.491Z,11.50
2019-03-20T07:30:29.475Z,12.69
2019-03-20T07:31:29.470Z,11.89
2019-03-20T07:32:30.104Z,9.89
2019-03-20T07:33:29.450Z,9.69
2019-03-20T07:34:29.439Z,10.39
2019-03-20T07:35:29.426Z,11.80
2019-03-20T07:36:29.418Z,10.89
2019-03-20T07:37:29.403Z,13.10
2019-03-20T07:38:29.544Z,12.80
2019-03-20T07:39:29.384Z,12.60
2019-03-20T07:40:29.373Z,13.50
2019-03-20T07:41:29.364Z,12.89
2019-03-20T07:42:29.350Z,13.00
2019-03-20T07:43:29.341Z,13.69
2019-03-20T07:44:29.383Z,13.30
2019-03-20T07:45:29.323Z,13.19
2019-03-20T07:46:29.310Z,12.30
2019-03-20T07:47:29.300Z,12.10
2019-03-20T07:48:29.289Z,13.19
2019-03-20T07:49:29.377Z,14.39
2019-03-20T07:50:29.267Z,15.60
2019-03-20T07:51:29.251Z,14.80
2019-03-20T07:52:29.246Z,13.89
2019-03-20T07:53:29.236Z,13.39
2019-03-20T07:54:29.222Z,12.19
2019-03-20T07:55:29.466Z,12.60
2019-03-20T07:56:29.203Z,13.10
2019-03-20T07:57:29.195Z,14.50
2019-03-20T07:58:29.188Z,16.10
2019-03-20T07:59:29.177Z,18.60
2019-03-20T08:00:29.162Z,18.29
2019-03-20T08:01:29.250Z,18.29
2019-03-20T08:02:29.143Z,14.30
2019-03-20T08:03:29.130Z,14.60
2019-03-20T08:04:29.122Z,16.20
2019-03-20T08:05:29.751Z,14.10
2019-03-20T08:06:29.097Z,14.69
2019-03-20T08:07:29.137Z,16.39
2019-03-20T08:08:29.071Z,19.50
2019-03-20T08:09:29.081Z,19.70
2019-03-20T08:10:29.052Z,16.10
2019-03-20T08:11:29.050Z,14.10
2019-03-20T08:12:29.036Z,14.10
2019-03-20T08:13:29.168Z,14.39
2019-03-20T08:14:29.006Z,15.00
2019-03-20T08:15:29.000Z,14.80
2019-03-20T08:16:28.991Z,16.20
2019-03-20T08:17:28.975Z,16.70
2019-03-20T08:18:28.968Z,19.89
2019-03-20T08:19:29.053Z,19.39
2019-03-20T08:20:28.941Z,21.10
2019-03-20T08:21:28.930Z,22.00
2019-03-20T08:22:28.924Z,23.60
2019-03-20T08:23:28.911Z,25.20
2019-03-20T08:24:28.901Z,23.60
2019-03-20T08:25:28.944Z,23.50
2019-03-20T08:26:28.879Z,23.29
2019-03-20T08:27:28.869Z,23.00
2019-03-20T08:28:28.851Z,27.70
2019-03-20T08:29:28.840Z,25.70
2019-03-20T08:30:28.834Z,25.00
2019-03-20T08:31:29.024Z,24.79
2019-03-20T08:32:28.810Z,27.00
2019-03-20T08:33:28.796Z,26.10
2019-03-20T08:34:28.794Z,22.29
2019-03-20T08:35:28.780Z,15.89
2019-03-20T08:36:28.791Z,14.69
2019-03-20T08:37:28.803Z,13.30
2019-03-20T08:38:28.747Z,7.09
2019-03-20T08:39:28.739Z,6.00
2019-03-20T08:40:28.722Z,5.40
2019-03-20T08:41:28.713Z,5.59
2019-03-20T08:42:28.702Z,5.80
2019-03-20T08:43:28.743Z,3.29
2019-03-20T08:44:28.682Z,3.20
2019-03-20T08:45:28.670Z,3.50
2019-03-20T08:46:28.657Z,3.50
2019-03-20T08:47:28.651Z,3.50
2019-03-20T08:48:28.635Z,3.70
2019-03-20T08:49:28.979Z,3.40
2019-03-20T08:50:28.618Z,3.90
2019-03-20T08:51:28.603Z,2.79
2019-03-20T08:52:28.592Z,3.50
2019-03-20T08:53:28.581Z,3.09
2019-03-20T08:54:28.575Z,3.59
2019-03-20T08:55:28.611Z,4.80
2019-03-20T08:56:28.548Z,8.50
2019-03-20T08:57:28.538Z,8.19
2019-03-20T08:58:28.528Z,9.10
2019-03-20T08:59:28.520Z,10.69
2019-03-20T09:00:28.506Z,11.89
2019-03-20T09:01:29.190Z,14.39
2019-03-20T09:02:28.484Z,18.20
2019-03-20T09:03:28.474Z,15.39
2019-03-20T09:04:28.465Z,13.50
2019-03-20T09:05:28.449Z,15.80
2019-03-20T09:06:28.439Z,21.00
2019-03-20T09:07:28.577Z,20.00
2019-03-20T09:08:29.633Z,20.39
2019-03-20T09:09:28.409Z,15.50
2019-03-20T09:10:28.399Z,16.00
2019-03-20T09:11:28.389Z,15.80
2019-03-20T09:12:28.376Z,16.89
2019-03-20T09:13:28.414Z,13.69
2019-03-20T09:14:28.354Z,16.50
2019-03-20T09:15:28.345Z,16.10
2019-03-20T09:16:28.332Z,16.10
2019-03-20T09:17:28.322Z,18.20
2019-03-20T09:18:28.309Z,16.39
2019-03-20T09:19:28.350Z,15.00
2019-03-20T09:20:28.290Z,15.69
2019-03-20T09:21:28.281Z,15.10
2019-03-20T09:22:28.270Z,16.60
2019-03-20T09:23:28.255Z,12.10
2019-03-20T09:24:28.347Z,13.19
2019-03-20T09:25:28.234Z,14.30
2019-03-20T09:26:28.227Z,15.00
2019-03-20T09:27:28.216Z,11.10
2019-03-20T09:28:28.201Z,11.10
2019-03-20T09:29:36.152Z,11.10
2019-03-20T09:30:53.051Z,13.39
2019-03-20T09:31:53.038Z,14.00
2019-03-20T09:32:53.028Z,15.60
2019-03-20T09:33:53.032Z,14.69
2019-03-20T09:34:53.007Z,10.89
2019-03-20T09:35:53.046Z,12.39
2019-03-20T09:36:52.980Z,11.19
2019-03-20T09:37:52.990Z,10.00
2019-03-20T09:38:52.964Z,10.60
2019-03-20T09:39:52.951Z,11.39
2019-03-20T09:40:52.956Z,12.69
2019-03-20T09:41:52.986Z,11.19
2019-03-20T09:42:52.928Z,12.39
2019-03-20T09:43:52.909Z,11.50
2019-03-20T09:44:52.902Z,10.80
2019-03-20T09:45:52.892Z,11.80
2019-03-20T09:46:52.881Z,10.39
2019-03-20T09:47:52.921Z,9.60
2019-03-20T09:48:52.862Z,9.10
2019-03-20T09:49:52.846Z,9.00
2019-03-20T09:50:52.842Z,8.89
2019-03-20T09:51:52.829Z,11.50
2019-03-20T09:52:52.811Z,10.69
2019-03-20T09:53:53.061Z,9.80
2019-03-20T09:54:52.798Z,10.69
2019-03-20T09:55:52.788Z,7.90
2019-03-20T09:56:52.782Z,10.60
2019-03-20T09:57:52.766Z,12.69
2019-03-20T09:58:52.756Z,13.00
2019-03-20T09:59:52.845Z,13.00
2019-03-20T10:00:52.740Z,13.30
2019-03-20T10:01:52.734Z,13.19
2019-03-20T10:02:52.713Z,15.80
2019-03-20T10:03:52.705Z,16.10
2019-03-20T10:04:52.691Z,17.29
2019-03-20T10:05:52.756Z,18.29
2019-03-20T10:06:52.676Z,9.19
2019-03-20T10:07:52.663Z,12.19
2019-03-20T10:08:54.425Z,13.89
2019-03-20T10:09:52.639Z,12.10
2019-03-20T10:10:52.625Z,15.69
2019-03-20T10:11:52.868Z,13.89
2019-03-20T10:12:52.607Z,10.50
2019-03-20T10:13:52.592Z,11.50
2019-03-20T10:14:52.583Z,13.00
2019-03-20T10:15:52.576Z,13.10
2019-03-20T10:16:52.562Z,11.80
2019-03-20T10:17:52.660Z,13.50
2019-03-20T10:18:52.546Z,13.80
2019-03-20T10:19:52.534Z,13.10
2019-03-20T10:20:52.525Z,13.50
2019-03-20T10:21:52.514Z,14.50
2019-03-20T10:22:52.498Z,11.89
2019-03-20T10:23:52.593Z,12.30
2019-03-20T10:24:52.482Z,17.50
2019-03-20T10:25:52.470Z,14.19
2019-03-20T10:26:52.461Z,14.00
2019-03-20T10:27:52.452Z,9.19
2019-03-20T10:28:52.435Z,12.00
2019-03-20T10:29:52.580Z,11.30
2019-03-20T10:30:52.418Z,8.39
2019-03-20T10:31:52.409Z,6.69
2019-03-20T10:32:52.398Z,6.59
2019-03-20T10:33:52.393Z,5.59
2019-03-20T10:34:52.373Z,5.40
2019-03-20T10:35:52.416Z,5.30
2019-03-20T10:36:52.359Z,5.19
2019-03-20T10:37:52.346Z,5.50
2019-03-20T10:38:52.453Z,6.00
2019-03-20T10:39:52.321Z,5.00
2019-03-20T10:40:52.313Z,5.50
2019-03-20T10:41:52.353Z,5.40
2019-03-20T10:42:52.303Z,5.19
2019-03-20T10:43:52.496Z,4.80
2019-03-20T10:44:52.273Z,4.69
2019-03-20T10:45:52.264Z,5.90
2019-03-20T10:46:52.248Z,6.40
2019-03-20T10:47:53.234Z,5.69
2019-03-20T10:48:52.231Z,5.00
2019-03-20T10:49:52.226Z,4.59
2019-03-20T10:50:52.209Z,4.50
2019-03-20T10:51:52.195Z,5.19
2019-03-20T10:52:52.193Z,4.40
2019-03-20T10:53:52.281Z,4.00
2019-03-20T10:54:52.164Z,3.59
2019-03-20T10:55:52.154Z,5.19
2019-03-20T10:56:52.144Z,5.59
2019-03-20T10:57:52.138Z,5.30
2019-03-20T10:58:52.123Z,5.19
2019-03-20T10:59:52.210Z,5.50
2019-03-20T11:00:52.113Z,5.19
2019-03-20T11:01:52.091Z,5.50
2019-03-20T11:02:52.083Z,5.59
2019-03-20T11:03:52.068Z,4.90
2019-03-20T11:04:52.058Z,4.50
2019-03-20T11:05:52.200Z,4.30
2019-03-20T11:06:52.037Z,3.50
2019-03-20T11:07:52.032Z,3.79
2019-03-20T11:08:52.032Z,4.59
2019-03-20T11:09:52.023Z,4.40
2019-03-20T11:10:51.996Z,4.30
2019-03-20T11:11:52.036Z,3.70
2019-03-20T11:12:51.973Z,5.09
2019-03-20T11:13:51.966Z,3.79
2019-03-20T11:14:51.965Z,3.90
2019-03-20T11:15:51.947Z,3.90
2019-03-20T11:16:51.933Z,3.70
2019-03-20T11:17:51.994Z,4.30
2019-03-20T11:18:51.920Z,3.90
2019-03-20T11:19:51.899Z,3.50
2019-03-20T11:20:53.594Z,3.79
2019-03-20T11:21:51.884Z,3.40
2019-03-20T11:22:51.874Z,3.50
2019-03-20T11:23:52.064Z,3.70
2019-03-20T11:24:51.849Z,3.09
2019-03-20T11:25:51.840Z,3.20
2019-03-20T11:26:51.829Z,2.79
2019-03-20T11:27:51.822Z,2.90
2019-03-20T11:28:51.801Z,3.00
2019-03-20T11:29:51.902Z,2.70
2019-03-20T11:30:51.784Z,2.79
2019-03-20T11:31:51.776Z,2.40
2019-03-20T11:32:51.765Z,2.50
2019-03-20T11:33:51.757Z,2.79
2019-03-20T11:34:51.742Z,3.29
2019-03-20T11:35:51.783Z,3.79
2019-03-20T11:36:51.721Z,2.90
2019-03-20T11:37:51.711Z,3.50
2019-03-20T11:38:51.699Z,3.09
2019-03-20T11:39:52.747Z,2.59
2019-03-20T11:40:51.681Z,2.59
2019-03-20T11:41:51.919Z,2.59
2019-03-20T11:42:51.657Z,2.79
2019-03-20T11:43:51.649Z,2.50
2019-03-20T11:44:51.641Z,2.50
2019-03-20T11:45:51.625Z,2.70
2019-03-20T11:46:51.623Z,3.09
2019-03-20T11:47:51.705Z,3.09
2019-03-20T11:48:51.589Z,3.29
2019-03-20T11:49:51.584Z,3.09
2019-03-20T11:50:51.573Z,2.79
2019-03-20T11:51:51.567Z,2.70
2019-03-20T11:52:51.550Z,2.59
2019-03-20T11:53:51.640Z,3.29
2019-03-20T11:54:51.529Z,3.40
2019-03-20T11:55:51.523Z,3.20
2019-03-20T11:56:51.508Z,2.70
2019-03-20T11:57:51.494Z,3.59
2019-03-20T11:58:51.481Z,3.70
2019-03-20T11:59:51.632Z,4.30
2019-03-20T12:00:51.466Z,3.70
2019-03-20T12:01:51.455Z,4.00
2019-03-20T12:02:51.443Z,2.90
2019-03-20T12:03:51.433Z,3.70
2019-03-20T12:04:53.912Z,3.40
2019-03-20T12:05:51.463Z,3.40
2019-03-20T12:06:51.395Z,3.20
2019-03-20T12:07:51.387Z,3.29
2019-03-20T12:08:51.379Z,3.70
2019-03-20T12:09:51.376Z,3.59
2019-03-20T12:10:51.355Z,4.30
2019-03-20T12:11:51.396Z,4.69
2019-03-20T12:12:51.333Z,3.79
2019-03-20T12:13:51.328Z,3.70
2019-03-20T12:14:51.315Z,4.40
2019-03-20T12:15:51.305Z,3.70
2019-03-20T12:16:51.297Z,15.10
2019-03-20T12:17:51.480Z,3.29
2019-03-20T12:18:51.271Z,2.90
2019-03-20T12:19:51.262Z,3.50
2019-03-20T12:20:51.248Z,3.90
2019-03-20T12:21:51.240Z,4.40
2019-03-20T12:22:51.230Z,3.90
2019-03-20T12:23:51.268Z,4.30
2019-03-20T12:24:51.208Z,3.59
2019-03-20T12:25:51.198Z,3.09
2019-03-20T12:26:51.187Z,3.00
2019-03-20T12:27:51.179Z,3.00
2019-03-20T12:28:51.165Z,2.79
2019-03-20T12:29:51.260Z,3.20
2019-03-20T12:30:51.200Z,4.00
2019-03-20T12:31:51.128Z,3.09
2019-03-20T12:32:51.118Z,3.40
2019-03-20T12:33:51.121Z,9.80
2019-03-20T12:34:51.152Z,3.50
2019-03-20T12:35:51.093Z,8.69
2019-03-20T12:36:51.081Z,3.09
2019-03-20T12:37:51.071Z,3.00
2019-03-20T12:38:51.060Z,2.90
2019-03-20T12:39:53.351Z,3.50
2019-03-20T12:40:51.141Z,3.40
2019-03-20T12:41:51.027Z,3.09
2019-03-20T12:42:51.014Z,3.00
2019-03-20T12:43:51.015Z,3.59
2019-03-20T12:44:50.991Z,15.60
2019-03-20T12:45:50.985Z,10.80
2019-03-20T12:46:51.023Z,4.09
2019-03-20T12:47:50.962Z,3.50
2019-03-20T12:48:50.954Z,3.90
2019-03-20T12:49:50.941Z,3.90
2019-03-20T12:50:50.931Z,3.79
2019-03-20T12:51:50.918Z,4.69
2019-03-20T12:52:50.960Z,5.19
2019-03-20T12:53:50.900Z,8.10
2019-03-20T12:54:50.895Z,10.10
2019-03-20T12:55:50.883Z,11.30
2019-03-20T12:56:50.878Z,12.50
2019-03-20T12:57:50.862Z,11.69
2019-03-20T12:58:50.896Z,11.10
2019-03-20T12:59:50.838Z,11.30
2019-03-20T13:00:50.830Z,11.
2019-03-20T13:01:50.816Z,9.
2019-03-20T13:02:50.807Z,10.